PTSAPGUM

Guest
Details From PTSA - Kosrae
To PGUM - Guam Intl
Flight Number -
Tags Generated
Created
Modified
Stats Distance 1,181 nm / 2,187 km
Max Altitude 0 ft / 0 m
Waypoints 3
Social Downloads 3
Likes 0
Share VATSIM

Download

Looking for another format? Having issues loading an existing format? Contact us
Advertisement - Login to hide

Notes

Generated

Route

PTSA R2844 PGUM

ID Type Via Altitude Latitude Longitude Leg Dist Tot Dist Heading (true) Name
O PTSA APT - 0 ft / 0 m 5.35247˚ 162.95188˚ - 0 nm - -
R2844 FIX - 0 ft / 0 m 13.47716˚ 144.78482˚ 1180 nm 1180 nm 296° / 293° -
O PGUM APT - 0 ft / 0 m 13.47716˚ 144.78482˚ 0 nm 1180 nm 0° / 180° -

Altitude Profile

Advertisement - Login to hide

Weather


0- 5 10 15 20 25 30 35+ Temperature / ° C

Clouds and Precipitation
Forecast for 2017-12-11 12:00 UTC. Updated an hour ago

Ground ~20,000 ft ~40,000 ft Winds

PTSA

Details ICAO PTSA (KSA)
Name Kosrae
Region Federated States of Micronesia, Palau
Timezone Unknown (UTC+0.0)
Stats Elevation 11 ft / 3 m (AMSL)
Location 5.356922° 162.958403°
Runways 1
Magnetic Variation 7.146° E

METAR

Not found

TAF

TAF PTSA 102331Z 1100/1124 08013KT P6SM VCSH SCT017 BKN130 TEMPO 1100/1102 4SM SHRA BKN016 OVC100

Decode

Departure Runways

ID Width Length Bearing (true) Bearing (mag) Surface Threshold Offset Overrun Length
05 151 ft / 46 m 5,749 ft / 1,752 m 55.56° 48.41° Asphalt 0 ft / 0 m 207 ft / 63 m
23 151 ft / 46 m 5,749 ft / 1,752 m 235.56° 228.41° Asphalt 0 ft / 0 m 207 ft / 63 m

PGUM

Details ICAO PGUM (GUM)
Name Guam Intl
Region USA (Guam, Northern Mariana Islands)
Timezone Pacific/Guam (UTC+10.0)
Stats Elevation 298 ft / 91 m (AMSL)
Location 13.483874° 144.797171°
Runways 2
Magnetic Variation 0.749° E

METAR

PGUM 110754Z 08007KT 10SM FEW019 SCT026 28/26 A2981 RMK AO2 SLP088 T02830261

Decode

TAF

TAF PGUM 110525Z 1106/1212 11014KT P6SM VCSH FEW018 SCT040 SCT120 FM110900 09010KT P6SM VCSH FEW018 FEW040

Decode

Destination Runways

ID Width Length Bearing (true) Bearing (mag) Surface Threshold Offset Overrun Length
06L 150 ft / 46 m 10,016 ft / 3,053 m 64.81° 64.06° Asphalt 0 ft / 0 m 1,002 ft / 305 m
06R 150 ft / 46 m 10,015 ft / 3,053 m 64.81° 64.06° Asphalt 0 ft / 0 m 400 ft / 122 m
24L 150 ft / 46 m 10,015 ft / 3,053 m 244.82° 244.07° Asphalt 1,004 ft / 306 m 300 ft / 91 m
24R 150 ft / 46 m 10,016 ft / 3,053 m 244.82° 244.07° Asphalt 0 ft / 0 m 450 ft / 137 m

Approach Navaids

Runway Type Ident Frequency Range Bearing (true) Bearing (mag) Slope Elevation
06L Localiser IGUM 110.30 MHz 18 nm / 33 km 64.81° 64.06° - 298 ft / 91 m (AMSL)
06L Glidescope IGUM 110.30 MHz 10 nm / 19 km 64.81° 64.06° 3.00° 680 ft / 207 m (AMSL)
06L DME IGUM 110.30 MHz 18 nm / 33 km - - - 317 ft / 97 m (AMSL)
06R Localiser IAWD 110.90 MHz 18 nm / 33 km 64.82° 64.07° - 298 ft / 91 m (AMSL)
06R Glidescope IAWD 110.90 MHz 10 nm / 19 km 64.82° 64.07° 3.00° 298 ft / 91 m (AMSL)
06R DME IAWD 110.90 MHz 18 nm / 33 km - - - 298 ft / 91 m (AMSL)

Popular Alternatives